createdAt,value
2023-01-11T00:04:39.284Z,-12.04
2023-01-11T00:09:41.855Z,-12.05
2023-01-11T00:14:45.057Z,-12.07
2023-01-11T00:19:47.662Z,-11.92
2023-01-11T00:24:50.324Z,-11.90
2023-01-11T00:29:52.977Z,-11.93
2023-01-11T00:34:55.607Z,-11.99
2023-01-11T00:39:58.260Z,-11.92
2023-01-11T00:45:19.187Z,-11.82
2023-01-11T00:50:21.720Z,-11.87
2023-01-11T00:55:25.277Z,-12.03
2023-01-11T01:00:28.915Z,-11.98
2023-01-11T01:05:31.536Z,-11.89
2023-01-11T01:10:34.187Z,-11.81
2023-01-11T01:15:36.858Z,-11.73
2023-01-11T01:20:39.727Z,-11.76
2023-01-11T01:25:42.256Z,-11.71
2023-01-11T01:30:50.229Z,-11.66
2023-01-11T01:35:52.798Z,-11.76
2023-01-11T01:40:56.981Z,-11.54
2023-01-11T01:45:59.639Z,-11.61
2023-01-11T01:51:03.634Z,-11.58
2023-01-11T01:56:14.066Z,-11.57
2023-01-11T02:01:36.387Z,-11.47
2023-01-11T02:06:42.779Z,-11.46
2023-01-11T02:11:45.785Z,-11.49
2023-01-11T02:16:48.482Z,-11.70
2023-01-11T02:22:17.193Z,-11.47
2023-01-11T02:27:44.128Z,-11.42
2023-01-11T02:32:56.158Z,-11.51
2023-01-11T02:38:22.863Z,-11.45
2023-01-11T02:43:59.761Z,-11.33
2023-01-11T02:49:41.011Z,-11.22
2023-01-11T02:54:47.997Z,-11.43
2023-01-11T02:59:51.273Z,-11.75
2023-01-11T03:04:53.880Z,-11.60
2023-01-11T03:10:05.158Z,-11.50
2023-01-11T03:15:07.551Z,-11.56
2023-01-11T03:20:21.162Z,-11.79
2023-01-11T03:25:31.313Z,-11.51
2023-01-11T03:30:42.318Z,-11.53
2023-01-11T03:36:08.896Z,-11.47
2023-01-11T03:41:18.360Z,-11.51
2023-01-11T03:46:36.910Z,-11.45
2023-01-11T03:51:44.582Z,-11.54
2023-01-11T03:57:13.178Z,-11.57
2023-01-11T04:02:24.545Z,-11.59
2023-01-11T04:07:27.218Z,-11.67
2023-01-11T04:12:29.987Z,-11.69
2023-01-11T04:17:32.775Z,-11.74
2023-01-11T04:22:35.434Z,-11.80
2023-01-11T04:27:38.022Z,-11.87
2023-01-11T04:32:40.684Z,-11.88
2023-01-11T04:37:46.298Z,-12.04
2023-01-11T04:42:49.246Z,-12.04
2023-01-11T04:47:59.255Z,-12.09
2023-01-11T04:53:01.800Z,-12.21
2023-01-11T04:58:04.387Z,-12.08
2023-01-11T05:03:06.989Z,-12.10
2023-01-11T05:08:09.525Z,-12.07
2023-01-11T05:13:12.133Z,-12.15
2023-01-11T05:18:15.349Z,-12.16
2023-01-11T05:23:17.933Z,-12.06
2023-01-11T05:28:20.512Z,-12.27
2023-01-11T05:33:23.048Z,-12.13
2023-01-11T05:38:25.667Z,-12.03
2023-01-11T05:43:29.878Z,-12.08
2023-01-11T05:48:32.426Z,-11.89
2023-01-11T05:53:35.114Z,-11.89
2023-01-11T05:58:38.288Z,-11.81
2023-01-11T06:03:41.166Z,-11.77
2023-01-11T06:08:43.947Z,-11.79
2023-01-11T06:13:46.732Z,-11.68
2023-01-11T06:18:52.047Z,-11.60
2023-01-11T06:23:55.410Z,-11.49
2023-01-11T06:28:57.974Z,-11.49
2023-01-11T06:34:00.790Z,-11.55
2023-01-11T06:39:03.809Z,-11.31
2023-01-11T06:44:06.413Z,-11.24
2023-01-11T06:49:09.025Z,-11.11
2023-01-11T06:54:11.571Z,-10.84
2023-01-11T06:59:14.119Z,-10.77
2023-01-11T07:04:18.721Z,-10.78
2023-01-11T07:09:21.356Z,-10.70
2023-01-11T07:14:25.216Z,-10.50
2023-01-11T07:19:27.823Z,-10.40
2023-01-11T07:24:30.448Z,-10.49
2023-01-11T07:29:33.028Z,-10.40
2023-01-11T07:34:35.605Z,-10.36
2023-01-11T07:39:43.789Z,-10.17
2023-01-11T07:44:46.730Z,-9.99
2023-01-11T07:49:49.349Z,-10.02
2023-01-11T07:54:52.100Z,-9.99
2023-01-11T07:59:54.816Z,-10.03
2023-01-11T08:04:58.252Z,-9.92
2023-01-11T08:10:00.815Z,-9.87
2023-01-11T08:15:03.765Z,-9.65
2023-01-11T08:20:06.901Z,-9.63
2023-01-11T08:25:09.974Z,-9.61
2023-01-11T08:30:14.105Z,-9.43
2023-01-11T08:35:16.795Z,-9.24
2023-01-11T08:40:20.116Z,-9.42
2023-01-11T08:45:23.972Z,-9.28
2023-01-11T08:50:26.651Z,-9.29
2023-01-11T08:55:31.141Z,-9.27
2023-01-11T09:00:33.720Z,-9.26
2023-01-11T09:05:36.717Z,-9.27
2023-01-11T09:10:39.267Z,-9.25
2023-01-11T09:15:42.011Z,-9.16
2023-01-11T09:20:44.701Z,-9.16
2023-01-11T09:25:47.223Z,-9.35
2023-01-11T09:30:50.101Z,-9.32
2023-01-11T09:35:52.701Z,-9.22
2023-01-11T09:41:12.201Z,-9.12
2023-01-11T09:46:15.221Z,-9.19
2023-01-11T09:51:19.800Z,-9.24
2023-01-11T09:56:28.764Z,-9.01
2023-01-11T10:01:42.839Z,-9.14
2023-01-11T10:06:59.353Z,-9.06
2023-01-11T10:19:10.434Z,-8.73
2023-01-11T10:24:12.628Z,-8.87
2023-01-11T10:29:21.228Z,-8.88
2023-01-11T10:34:42.463Z,-8.75
2023-01-11T10:40:35.176Z,-8.80
2023-01-11T10:45:53.687Z,-8.87
2023-01-11T10:51:25.000Z,-8.94
2023-01-11T10:57:04.720Z,-8.92
2023-01-11T11:02:40.891Z,-8.76
2023-01-11T11:08:01.840Z,-8.74
2023-01-11T11:13:16.957Z,-8.74
2023-01-11T11:18:22.357Z,-8.74
2023-01-11T11:23:27.746Z,-8.98
2023-01-11T11:28:33.077Z,-8.89
2023-01-11T11:33:37.805Z,-8.93
2023-01-11T11:39:00.491Z,-9.16
2023-01-11T11:44:17.697Z,-9.16
2023-01-11T11:49:20.211Z,-9.37
2023-01-11T11:54:40.845Z,-9.30
2023-01-11T11:59:48.781Z,-9.65
2023-01-11T12:04:52.345Z,-9.56
2023-01-11T12:10:02.796Z,-9.37
2023-01-11T12:15:18.768Z,-9.28
2023-01-11T12:20:24.177Z,-9.28
2023-01-11T12:25:28.920Z,-9.44
2023-01-11T12:30:52.847Z,-9.38
2023-01-11T12:36:10.568Z,-9.13
2023-01-11T12:41:48.372Z,-9.08
2023-01-11T12:46:57.384Z,-9.21
2023-01-11T12:52:29.259Z,-9.29
2023-01-11T12:58:16.652Z,-9.43
2023-01-11T13:03:50.097Z,-9.38
2023-01-11T13:08:56.333Z,-9.46
2023-01-11T13:14:22.488Z,-9.52
2023-01-11T13:19:37.604Z,-9.69
2023-01-11T13:24:43.400Z,-9.66
2023-01-11T13:29:48.687Z,-9.67
2023-01-11T13:35:13.174Z,-9.63
2023-01-11T13:40:28.982Z,-9.66
2023-01-11T13:45:37.718Z,-9.63
2023-01-11T13:50:47.556Z,-9.61
2023-01-11T13:56:06.346Z,-9.85
2023-01-11T14:01:17.554Z,-9.63
2023-01-11T14:06:42.473Z,-9.51
2023-01-11T14:12:11.998Z,-9.45
2023-01-11T14:17:40.244Z,-9.49
2023-01-11T14:22:56.006Z,-9.64
2023-01-11T14:28:41.503Z,-9.65
2023-01-11T14:33:56.366Z,-9.56
2023-01-11T14:39:17.767Z,-9.50
2023-01-11T14:44:52.773Z,-9.60
2023-01-11T14:50:19.931Z,-9.48
2023-01-11T14:55:27.873Z,-9.51
2023-01-11T15:00:30.428Z,-9.40
2023-01-11T15:05:43.155Z,-9.44
2023-01-11T15:11:29.093Z,-9.47
2023-01-11T15:16:54.276Z,-9.52
2023-01-11T15:21:58.812Z,-9.61
2023-01-11T15:27:03.605Z,-9.62
2023-01-11T15:32:16.132Z,-9.99
2023-01-11T15:37:58.257Z,-9.62
2023-01-11T15:43:31.530Z,-9.58
2023-01-11T15:48:49.043Z,-9.49
2023-01-11T15:54:25.974Z,-9.47
2023-01-11T15:59:37.217Z,-9.48
2023-01-11T16:04:47.923Z,-9.57
2023-01-11T16:10:23.930Z,-9.48
2023-01-11T16:15:33.682Z,-9.27
2023-01-11T16:20:36.559Z,-9.24
2023-01-11T16:25:41.502Z,-9.18
2023-01-11T16:30:46.729Z,-9.24
2023-01-11T16:35:49.452Z,-8.91
2023-01-11T16:40:54.585Z,-8.78
2023-01-11T16:45:57.240Z,-8.76
2023-01-11T16:50:59.889Z,-8.94
2023-01-11T16:56:08.093Z,-8.93
2023-01-11T17:01:15.397Z,-8.78
2023-01-11T17:06:20.772Z,-9.02
2023-01-11T17:11:37.844Z,-9.11
2023-01-11T17:16:43.376Z,-9.03
2023-01-11T17:22:15.799Z,-8.98
2023-01-11T17:27:35.659Z,-8.89
2023-01-11T17:32:42.997Z,-8.81
2023-01-11T17:37:47.921Z,-8.73
2023-01-11T17:43:09.908Z,-8.91
2023-01-11T17:48:15.635Z,-8.71
2023-01-11T17:53:23.446Z,-9.16
2023-01-11T17:58:30.061Z,-8.90
2023-01-11T18:04:18.253Z,-8.99
2023-01-11T18:09:28.620Z,-9.20
2023-01-11T18:14:38.978Z,-9.05
2023-01-11T18:19:44.765Z,-8.86
2023-01-11T18:24:53.404Z,-8.87
2023-01-11T18:29:58.525Z,-8.91
2023-01-11T18:35:01.210Z,-9.04
2023-01-11T18:40:04.373Z,-9.00
2023-01-11T18:45:10.571Z,-8.78
2023-01-11T18:50:13.657Z,-8.86
2023-01-11T18:55:16.860Z,-8.76
2023-01-11T19:00:19.712Z,-8.79
2023-01-11T19:05:22.366Z,-9.12
2023-01-11T19:10:25.146Z,-8.72
2023-01-11T19:15:27.924Z,-8.87
2023-01-11T19:25:33.966Z,-8.82
2023-01-11T19:30:39.154Z,-8.73
2023-01-11T19:35:47.658Z,-8.80
2023-01-11T19:40:50.761Z,-8.74
2023-01-11T19:45:57.627Z,-8.79
2023-01-11T19:51:05.708Z,-8.64
2023-01-11T19:56:09.710Z,-8.74
2023-01-11T20:01:12.580Z,-8.49
2023-01-11T20:06:15.402Z,-8.52
2023-01-11T20:11:19.084Z,-8.48
2023-01-11T20:16:23.583Z,-8.43
2023-01-11T20:21:28.723Z,-8.42
2023-01-11T20:26:33.953Z,-8.35
2023-01-11T20:31:36.841Z,-8.56
2023-01-11T20:36:39.568Z,-8.57
2023-01-11T20:41:48.459Z,-8.61
2023-01-11T20:46:52.583Z,-8.69
2023-01-11T20:51:55.411Z,-8.77
2023-01-11T20:57:02.182Z,-8.77
2023-01-11T21:02:07.409Z,-8.65
2023-01-11T21:07:10.108Z,-8.72
2023-01-11T21:12:12.674Z,-8.46
2023-01-11T21:17:15.276Z,-8.71
2023-01-11T21:22:17.898Z,-8.84
2023-01-11T21:27:20.530Z,-8.70
2023-01-11T21:32:23.614Z,-8.54
2023-01-11T21:37:26.256Z,-8.43
2023-01-11T21:42:29.663Z,-8.48
2023-01-11T21:47:32.249Z,-8.55
2023-01-11T21:52:34.946Z,-8.19
2023-01-11T21:57:37.481Z,-8.16
2023-01-11T22:02:40.101Z,-8.18
2023-01-11T22:07:43.562Z,-8.23
2023-01-11T22:12:46.282Z,-8.26
2023-01-11T22:17:48.802Z,-8.24
2023-01-11T22:22:51.381Z,-8.24
2023-01-11T22:27:54.171Z,-8.15
2023-01-11T22:32:59.057Z,-8.08
2023-01-11T22:38:01.637Z,-8.36
2023-01-11T22:43:04.195Z,-8.08
2023-01-11T22:48:06.700Z,-8.11
2023-01-11T22:53:09.193Z,-8.15
2023-01-11T22:58:11.864Z,-8.05
2023-01-11T23:03:15.541Z,-8.00
2023-01-11T23:08:18.089Z,-8.10
2023-01-11T23:13:39.300Z,-8.09
2023-01-11T23:18:41.953Z,-7.97
2023-01-11T23:23:44.933Z,-7.82
2023-01-11T23:28:49.283Z,-7.78
2023-01-11T23:33:55.190Z,-7.79
2023-01-11T23:38:58.469Z,-7.95
2023-01-11T23:44:02.270Z,-7.82
2023-01-11T23:49:07.330Z,-7.69
2023-01-11T23:54:10.527Z,-7.62
2023-01-11T23:59:13.158Z,-7.81
